Time;durP1;ratioP1;P1;durP2;ratioP2;P2;SDS_P1;SDS_P2;PMS_P1;PMS_P2;Temp;Humidity;BMP_temperature;BMP_pressure;BME280_temperature;BME280_humidity;BME280_pressure;Samples;Min_cycle;Max_cycle;Signal;HPM_P1;HPM_P2
2021/06/06 00:01:25;;;;;;;8.80;7.07;;;;;;;17.06;83.00;100277.31;2217336;40;20134;-79
2021/06/06 00:02:58;;;;;;;9.23;7.10;;;;;;;17.05;82.99;100278.31;2222747;40;20060;-80
2021/06/06 00:04:29;;;;;;;8.70;7.30;;;;;;;17.05;82.83;100278.31;2219365;40;20029;-79
2021/06/06 00:06:04;;;;;;;9.60;7.18;;;;;;;17.03;82.89;100281.22;2221896;40;20048;-78
2021/06/06 00:07:36;;;;;;;7.88;6.38;;;;;;;17.00;83.16;100270.75;2219765;40;20042;-79
2021/06/06 00:09:11;;;;;;;7.75;5.75;;;;;;;17.03;82.93;100274.97;2220212;40;20099;-78
2021/06/06 00:10:44;;;;;;;8.68;6.97;;;;;;;17.08;82.77;100275.25;2220154;40;20573;-79
2021/06/06 00:12:17;;;;;;;10.85;7.75;;;;;;;17.05;82.74;100275.63;2221325;40;20098;-78
2021/06/06 00:13:49;;;;;;;10.43;7.03;;;;;;;17.04;82.90;100280.19;2210613;40;20058;-79
2021/06/06 00:15:20;;;;;;;8.75;5.95;;;;;;;17.07;83.08;100276.28;2216370;40;20391;-78
2021/06/06 00:16:57;;;;;;;8.40;6.82;;;;;;;17.07;82.84;100279.81;2220999;40;20029;-77
2021/06/06 00:18:29;;;;;;;9.43;8.23;;;;;;;17.05;82.82;100268.34;2211959;40;20049;-78
2021/06/06 00:19:59;;;;;;;9.70;8.27;;;;;;;16.98;82.51;100272.78;2219667;40;20154;-78
2021/06/06 00:21:31;;;;;;;8.48;7.20;;;;;;;17.01;82.57;100272.44;2221159;40;20483;-78
2021/06/06 00:23:03;;;;;;;10.30;8.48;;;;;;;17.00;82.75;100270.75;2214942;40;20104;-79
2021/06/06 00:24:36;;;;;;;9.82;6.97;;;;;;;16.98;82.39;100278.19;2214722;40;20149;-78
2021/06/06 00:26:09;;;;;;;9.77;7.15;;;;;;;16.94;82.42;100271.50;2212762;40;20057;-78
2021/06/06 00:27:42;;;;;;;8.45;7.10;;;;;;;16.92;82.59;100274.31;2214532;40;20052;-78
2021/06/06 00:29:13;;;;;;;9.23;7.65;;;;;;;16.95;82.79;100270.47;2212007;40;20072;-77
2021/06/06 00:30:45;;;;;;;8.85;7.55;;;;;;;16.93;82.61;100267.94;2214861;40;20041;-77
2021/06/06 00:32:19;;;;;;;10.88;8.25;;;;;;;16.91;82.68;100271.81;2216985;40;20045;-78
2021/06/06 00:33:50;;;;;;;10.27;8.05;;;;;;;16.83;82.44;100275.41;2213925;40;20429;-78
2021/06/06 00:35:24;;;;;;;10.32;7.43;;;;;;;16.80;82.60;100270.41;2218342;40;20048;-78
2021/06/06 00:36:56;;;;;;;9.05;7.43;;;;;;;16.78;82.98;100264.31;2222305;40;20039;-79
2021/06/06 00:38:27;;;;;;;11.65;8.70;;;;;;;16.75;83.03;100264.69;2220648;40;20045;-78
2021/06/06 00:39:58;;;;;;;11.25;7.93;;;;;;;16.76;82.85;100266.38;2219323;40;20048;-78
2021/06/06 00:41:31;;;;;;;9.57;8.20;;;;;;;16.78;82.97;100275.13;2219667;40;20032;-77
2021/06/06 00:43:05;;;;;;;9.73;7.25;;;;;;;16.82;82.95;100271.03;2213130;40;20056;-80
2021/06/06 00:44:36;;;;;;;10.90;8.20;;;;;;;16.83;82.72;100265.47;2216342;40;20041;-79
2021/06/06 00:46:09;;;;;;;10.65;7.70;;;;;;;16.87;82.48;100263.25;2218001;40;20033;-77
2021/06/06 00:47:41;;;;;;;10.38;8.15;;;;;;;16.81;82.65;100261.28;2221573;40;20079;-77
2021/06/06 00:49:12;;;;;;;10.77;7.63;;;;;;;16.82;82.74;100268.34;2216782;40;20048;-77
2021/06/06 00:50:47;;;;;;;11.05;9.05;;;;;;;16.87;82.44;100265.94;2221804;40;20045;-78
2021/06/06 00:52:19;;;;;;;8.95;7.32;;;;;;;16.89;82.46;100263.06;2216524;40;20033;-78
2021/06/06 00:53:55;;;;;;;10.50;7.85;;;;;;;16.86;82.60;100268.84;2215956;40;20761;-79
2021/06/06 00:55:27;;;;;;;10.68;9.00;;;;;;;16.82;82.52;100262.94;2215532;40;20107;-79
2021/06/06 00:57:04;;;;;;;10.10;7.88;;;;;;;16.77;82.60;100259.94;2222543;40;20301;-79
2021/06/06 00:58:37;;;;;;;9.57;7.80;;;;;;;16.79;82.40;100263.31;2219317;40;20045;-78
2021/06/06 01:00:15;;;;;;;9.95;8.35;;;;;;;16.73;82.36;100259.47;2221716;40;20060;-79
2021/06/06 01:01:46;;;;;;;10.93;9.70;;;;;;;16.69;82.47;100263.53;2215174;40;20064;-79
2021/06/06 01:03:18;;;;;;;10.02;8.40;;;;;;;16.65;82.56;100267.63;2214251;40;20038;-78
2021/06/06 01:04:50;;;;;;;12.20;9.50;;;;;;;16.66;82.80;100269.31;2209445;40;20050;-77
2021/06/06 01:06:25;;;;;;;13.15;9.45;;;;;;;16.65;82.80;100267.63;2213986;40;20696;-78
2021/06/06 01:07:58;;;;;;;14.05;10.73;;;;;;;16.64;82.73;100261.38;2219689;40;20057;-79
2021/06/06 01:09:29;;;;;;;13.13;10.13;;;;;;;16.60;82.98;100260.06;2219413;40;20053;-80
2021/06/06 01:11:07;;;;;;;10.43;9.30;;;;;;;16.59;82.79;100266.47;2215387;40;20065;-78
2021/06/06 01:12:46;;;;;;;13.52;9.20;;;;;;;16.65;83.06;100267.63;2211191;40;20042;-80
2021/06/06 01:14:24;;;;;;;13.27;8.98;;;;;;;16.64;82.61;100269.47;2208503;40;20136;-78
2021/06/06 01:16:00;;;;;;;14.68;10.13;;;;;;;16.59;82.34;100268.31;2214050;40;20033;-78
2021/06/06 01:17:38;;;;;;;14.40;10.52;;;;;;;16.55;82.69;100262.44;2216034;40;20314;-79
2021/06/06 01:19:19;;;;;;;13.32;10.27;;;;;;;16.50;82.69;100264.84;2214280;40;20056;-78
2021/06/06 01:20:55;;;;;;;;;;;;;;;16.45;82.87;100262.69;2216967;40;20038;-79
2021/06/06 01:22:45;;;;;;;13.63;10.57;;;;;;;16.51;82.76;100263.84;2216511;40;19937;-78
2021/06/06 01:24:24;;;;;;;12.30;10.25;;;;;;;16.56;82.74;100252.50;2221479;40;20045;-79
2021/06/06 01:26:01;;;;;;;13.32;10.10;;;;;;;16.53;82.55;100265.34;2210653;40;20055;-78
2021/06/06 01:27:37;;;;;;;12.88;9.20;;;;;;;16.55;82.72;100262.44;2214776;40;20033;-79
2021/06/06 01:29:16;;;;;;;12.13;9.32;;;;;;;16.55;82.52;100262.44;2210826;40;20041;-79
2021/06/06 01:30:52;;;;;;;14.32;10.85;;;;;;;16.53;82.42;100261.81;2207720;40;20030;-79
2021/06/06 01:32:28;;;;;;;13.02;10.77;;;;;;;16.46;82.64;100260.81;2219570;40;20586;-80
2021/06/06 01:34:04;;;;;;;12.50;10.38;;;;;;;16.45;82.71;100251.91;2221263;40;20037;-79
2021/06/06 01:35:37;;;;;;;13.07;11.45;;;;;;;16.43;82.83;100255.81;2222501;40;20057;-79
2021/06/06 01:37:12;;;;;;;12.73;9.65;;;;;;;16.42;82.63;100257.66;2203395;40;20161;-79
2021/06/06 01:38:48;;;;;;;11.52;9.30;;;;;;;16.42;82.80;100264.91;2212500;40;20519;-79
2021/06/06 01:40:24;;;;;;;12.18;9.50;;;;;;;16.45;82.83;100259.13;2210938;40;20306;-78
2021/06/06 01:41:59;;;;;;;14.20;8.90;;;;;;;16.46;82.98;100248.19;2222023;40;20130;-78
2021/06/06 01:43:34;;;;;;;16.17;10.68;;;;;;;16.45;82.90;100251.03;2217088;40;20147;-79
2021/06/06 01:45:10;;;;;;;11.55;8.27;;;;;;;16.48;82.71;100250.69;2216231;40;20042;-80
2021/06/06 01:46:45;;;;;;;14.57;10.38;;;;;;;16.51;82.44;100253.06;2218394;40;20060;-81
2021/06/06 01:48:16;;;;;;;12.93;9.20;;;;;;;16.51;82.33;100261.97;2220641;40;20124;-80
2021/06/06 01:49:51;;;;;;;12.43;9.75;;;;;;;16.47;82.36;100254.41;2217477;40;20048;-78
2021/06/06 01:51:25;;;;;;;11.23;8.82;;;;;;;16.47;82.52;100254.41;2222301;40;20040;-79
2021/06/06 01:53:00;;;;;;;11.82;8.75;;;;;;;16.46;82.49;100256.28;2216665;40;20473;-78
2021/06/06 01:54:35;;;;;;;12.20;10.25;;;;;;;16.43;82.49;100256.63;2221826;40;20057;-78
2021/06/06 01:56:10;;;;;;;13.27;9.40;;;;;;;16.44;82.49;100249.38;2218463;40;20134;-79
2021/06/06 01:57:43;;;;;;;13.23;9.13;;;;;;;16.45;82.65;100248.34;2216668;40;20098;-79
2021/06/06 01:59:20;;;;;;;13.57;10.18;;;;;;;16.42;82.47;100256.81;2216727;40;20026;-79
2021/06/06 02:00:54;;;;;;;12.80;9.55;;;;;;;16.43;82.81;100251.22;2219450;40;20052;-78
2021/06/06 02:02:25;;;;;;;14.63;10.68;;;;;;;16.42;82.37;100246.84;2220388;40;20111;-79
2021/06/06 02:03:59;;;;;;;16.30;10.07;;;;;;;16.35;82.69;100254.81;2214139;40;20021;-79
2021/06/06 02:05:31;;;;;;;16.08;12.40;;;;;;;16.29;82.93;100250.13;2216681;40;20096;-78
2021/06/06 02:07:08;;;;;;;14.35;11.85;;;;;;;16.30;83.24;100254.53;2219032;40;20378;-79
2021/06/06 02:08:41;;;;;;;13.20;10.70;;;;;;;16.27;83.39;100248.63;2222228;40;20029;-79
2021/06/06 02:10:21;;;;;;;12.70;9.45;;;;;;;16.27;83.73;100252.16;2218826;40;20354;-80
2021/06/06 02:11:57;;;;;;;16.10;10.15;;;;;;;16.25;83.97;100256.06;2222403;40;20057;-78
2021/06/06 02:13:33;;;;;;;13.30;9.27;;;;;;;16.22;84.00;100255.41;2219091;40;20091;-79
2021/06/06 02:15:07;;;;;;;14.15;10.75;;;;;;;16.21;83.83;100250.19;2222790;40;20583;-79
2021/06/06 02:16:42;;;;;;;14.20;10.05;;;;;;;16.22;84.20;100249.16;2217602;40;20498;-79
2021/06/06 02:18:14;;;;;;;15.57;10.27;;;;;;;16.22;84.22;100259.97;2219433;40;20045;-80
2021/06/06 02:19:46;;;;;;;14.05;10.63;;;;;;;16.17;84.10;100244.31;2219669;40;20317;-79
2021/06/06 02:21:19;;;;;;;14.82;10.57;;;;;;;16.16;84.17;100252.56;2219440;40;20122;-79
2021/06/06 02:22:50;;;;;;;12.00;8.43;;;;;;;16.17;84.53;100251.53;2221749;40;20049;-78
2021/06/06 02:24:22;;;;;;;14.65;11.48;;;;;;;16.16;84.47;100248.03;2219080;40;20057;-80
2021/06/06 02:25:59;;;;;;;14.95;10.43;;;;;;;16.16;84.22;100257.94;2166869;40;20036;-79
2021/06/06 02:27:37;;;;;;;14.85;10.13;;;;;;;16.15;84.59;100254.44;2214771;40;20033;-80
2021/06/06 02:29:16;;;;;;;13.82;9.57;;;;;;;16.15;84.66;100253.59;2219022;40;20049;-77
2021/06/06 02:30:54;;;;;;;17.58;11.35;;;;;;;16.19;84.50;100255.75;2221298;40;20383;-78
2021/06/06 02:32:32;;;;;;;17.77;13.35;;;;;;;16.15;84.71;100250.91;2222508;40;20029;-78
2021/06/06 02:34:11;;;;;;;17.02;12.23;;;;;;;16.09;84.75;100252.44;2220989;40;20045;-80
2021/06/06 02:35:46;;;;;;;17.88;12.70;;;;;;;16.02;84.96;100251.44;2221241;40;20059;-78
2021/06/06 02:37:24;;;;;;;21.27;13.90;;;;;;;16.02;85.13;100252.31;2217852;40;20041;-81
2021/06/06 02:39:05;;;;;;;19.98;14.32;;;;;;;16.00;85.37;100258.88;2219547;40;20057;-80
2021/06/06 02:40:40;;;;;;;18.50;13.55;;;;;;;15.96;85.62;100252.16;2221725;40;20037;-79
2021/06/06 02:42:15;;;;;;;21.15;14.27;;;;;;;15.96;85.65;100257.53;2221039;40;20025;-79
2021/06/06 02:43:52;;;;;;;21.50;16.70;;;;;;;15.87;85.59;100254.88;2221532;40;20041;-78
2021/06/06 02:45:27;;;;;;;19.08;13.98;;;;;;;15.82;85.77;100248.31;2222066;40;21369;-79
2021/06/06 02:47:01;;;;;;;14.90;11.80;;;;;;;15.86;86.15;100255.06;2214878;40;20161;-78
2021/06/06 02:48:39;;;;;;;17.83;14.50;;;;;;;15.88;86.01;100250.31;2216083;40;20049;-78
2021/06/06 02:50:15;;;;;;;18.52;13.63;;;;;;;15.88;86.13;100244.94;2212959;40;20136;-78
2021/06/06 02:51:49;;;;;;;19.17;14.25;;;;;;;15.91;85.96;100249.97;2190920;40;20039;-80
2021/06/06 02:53:26;;;;;;;16.90;14.20;;;;;;;15.87;86.00;100246.81;2217162;40;20588;-80
2021/06/06 02:55:01;;;;;;;15.63;12.23;;;;;;;15.85;86.23;100248.00;2219990;40;20059;-78
2021/06/06 02:56:36;;;;;;;15.90;11.98;;;;;;;15.85;86.14;100245.31;2211114;40;20030;-78
2021/06/06 02:58:15;;;;;;;16.23;13.75;;;;;;;15.85;85.94;100242.59;2209228;40;20052;-79
2021/06/06 02:59:51;;;;;;;12.25;10.38;;;;;;;15.87;86.10;100243.28;2211150;40;20135;-79
2021/06/06 03:01:31;;;;;;;15.15;10.13;;;;;;;15.95;86.21;100245.06;2202621;40;20045;-80
2021/06/06 03:03:07;;;;;;;14.55;11.38;;;;;;;15.94;86.02;100243.41;2222111;40;20043;-79
2021/06/06 03:04:42;;;;;;;17.02;13.23;;;;;;;15.99;86.00;100247.25;2217199;40;20071;-79
2021/06/06 03:06:18;;;;;;;15.52;12.45;;;;;;;15.93;85.60;100247.97;2216473;40;20429;-80
2021/06/06 03:07:53;;;;;;;13.38;11.38;;;;;;;15.89;85.85;100242.09;2214864;40;20354;-80
2021/06/06 03:09:25;;;;;;;12.98;11.52;;;;;;;15.83;85.79;100240.03;2213849;40;20239;-79
2021/06/06 03:10:58;;;;;;;13.73;10.70;;;;;;;15.80;85.84;100248.50;2215082;40;20060;-79
2021/06/06 03:12:29;;;;;;;15.50;12.52;;;;;;;15.80;85.75;100253.03;2215884;40;20530;-78
2021/06/06 03:14:07;;;;;;;14.50;12.38;;;;;;;15.78;86.06;100250.50;2214617;40;20057;-79
2021/06/06 03:15:45;;;;;;;13.82;11.65;;;;;;;15.74;85.98;100260.81;2216433;40;20040;-80
2021/06/06 03:17:23;;;;;;;12.90;10.55;;;;;;;15.77;85.98;100250.69;2215198;40;20038;-80
2021/06/06 03:18:57;;;;;;;12.82;10.95;;;;;;;15.78;86.20;100250.50;2214417;40;20052;-80
2021/06/06 03:20:33;;;;;;;13.40;11.30;;;;;;;15.78;86.08;100249.66;2215918;40;20037;-81
2021/06/06 03:22:09;;;;;;;12.48;10.82;;;;;;;15.79;85.84;100262.13;2215706;40;20029;-80
2021/06/06 03:23:42;;;;;;;13.07;10.75;;;;;;;15.73;85.91;100253.72;2222064;40;20037;-79
2021/06/06 03:25:19;;;;;;;13.70;11.25;;;;;;;15.76;85.99;100257.91;2217885;40;20044;-80
2021/06/06 03:26:52;;;;;;;13.65;10.18;;;;;;;15.80;86.01;100253.03;2222196;40;20095;-80
2021/06/06 03:28:28;;;;;;;14.18;10.77;;;;;;;15.79;85.86;100246.81;2220223;40;20057;-79
2021/06/06 03:30:05;;;;;;;13.70;9.48;;;;;;;15.79;86.13;100257.59;2215782;40;20041;-80
2021/06/06 03:31:43;;;;;;;14.23;11.55;;;;;;;15.80;85.94;100256.56;2214227;40;20396;-79
2021/06/06 03:33:17;;;;;;;14.80;11.10;;;;;;;15.78;85.90;100250.50;2220067;40;20021;-80
2021/06/06 03:34:49;;;;;;;13.55;10.75;;;;;;;15.79;85.96;100254.03;2206507;40;20032;-80
2021/06/06 03:36:24;;;;;;;16.13;11.57;;;;;;;15.77;85.93;100251.53;2221176;40;20057;-78
2021/06/06 03:37:55;;;;;;;14.35;11.00;;;;;;;15.75;85.94;100249.00;2194332;40;20054;-79
2021/06/06 03:39:27;;;;;;;14.30;11.50;;;;;;;15.79;85.95;100248.63;2209266;40;20061;-79
2021/06/06 03:40:58;;;;;;;14.05;11.38;;;;;;;15.79;85.88;100245.94;2168576;40;20063;-78
2021/06/06 03:42:30;;;;;;;13.63;11.05;;;;;;;15.77;86.10;100248.81;2205232;40;20037;-78
2021/06/06 03:44:04;;;;;;;15.32;11.13;;;;;;;15.78;85.98;100246.97;2202222;40;20078;-79
2021/06/06 03:45:35;;;;;;;14.45;10.32;;;;;;;15.78;86.15;100245.13;2203281;40;20069;-79
2021/06/06 03:47:08;;;;;;;15.40;11.32;;;;;;;15.79;86.20;100245.94;2205095;40;20346;-79
2021/06/06 03:48:40;;;;;;;14.02;12.00;;;;;;;15.78;85.99;100249.66;2202649;40;20046;-78
2021/06/06 03:50:14;;;;;;;14.93;11.85;;;;;;;15.77;86.20;100245.31;2191852;40;20053;-79
2021/06/06 03:51:48;;;;;;;17.15;12.15;;;;;;;15.74;85.99;100243.78;2208709;40;20573;-80
2021/06/06 03:53:19;;;;;;;17.23;12.73;;;;;;;15.73;85.93;100245.63;2191255;40;20085;-79
2021/06/06 03:54:53;;;;;;;17.35;12.27;;;;;;;15.75;86.35;100250.84;2205455;40;20402;-78
2021/06/06 03:56:24;;;;;;;16.40;11.80;;;;;;;15.74;86.49;100243.78;2208650;40;20048;-80
2021/06/06 03:57:55;;;;;;;13.38;10.25;;;;;;;15.72;86.43;100243.97;2197446;40;20039;-79
2021/06/06 03:59:35;;;;;;;14.45;10.65;;;;;;;15.80;86.26;100248.50;2203263;40;20039;-79
2021/06/06 04:01:07;;;;;;;13.15;11.30;;;;;;;15.79;86.35;100245.94;2206889;40;20069;-79
2021/06/06 04:02:40;;;;;;;14.38;10.48;;;;;;;15.81;86.27;100241.22;2204951;40;20046;-79
2021/06/06 04:04:11;;;;;;;13.73;10.48;;;;;;;15.81;86.07;100249.31;2205248;40;20046;-78
2021/06/06 04:05:44;;;;;;;13.07;10.25;;;;;;;15.79;86.05;100243.25;2203872;40;20055;-79
2021/06/06 04:07:25;;;;;;;11.93;9.68;;;;;;;15.75;86.06;100237.38;2204784;40;20046;-78
2021/06/06 04:08:57;;;;;;;12.85;8.98;;;;;;;15.78;86.04;100233.47;2203523;40;20346;-79
2021/06/06 04:10:29;;;;;;;14.93;11.20;;;;;;;15.76;86.25;100236.34;2176411;40;20324;-80
2021/06/06 04:12:00;;;;;;;10.68;9.32;;;;;;;15.74;86.04;100239.25;2206244;40;20035;-78
2021/06/06 04:13:31;;;;;;;13.98;9.93;;;;;;;15.76;86.10;100236.34;2202793;40;20054;-78
2021/06/06 04:15:03;;;;;;;13.88;8.93;;;;;;;15.73;85.88;100237.56;2205179;40;20046;-78
2021/06/06 04:16:35;;;;;;;11.77;8.68;;;;;;;15.73;86.00;100237.56;2205938;40;20147;-79
2021/06/06 04:18:13;;;;;;;14.27;9.82;;;;;;;15.74;85.94;100244.63;2210218;40;20037;-79
2021/06/06 04:19:44;;;;;;;11.70;9.95;;;;;;;15.70;85.83;100232.50;2207659;40;20050;-79
2021/06/06 04:21:20;;;;;;;12.65;9.90;;;;;;;15.70;86.03;100232.50;2209448;40;20061;-78
2021/06/06 04:22:51;;;;;;;12.15;9.68;;;;;;;15.69;85.96;100235.38;2195466;40;20045;-78
2021/06/06 04:24:23;;;;;;;10.90;8.38;;;;;;;15.68;86.11;100245.31;2210444;40;20116;-78
2021/06/06 04:25:54;;;;;;;13.10;10.70;;;;;;;15.69;86.16;100247.00;2210642;40;20052;-79
2021/06/06 04:27:25;;;;;;;11.63;9.48;;;;;;;15.69;86.28;100238.91;2195369;40;20065;-78
2021/06/06 04:28:56;;;;;;;10.65;8.45;;;;;;;15.75;86.31;100238.22;2204314;40;20057;-78
2021/06/06 04:30:28;;;;;;;10.63;8.38;;;;;;;15.77;86.00;100229.13;2200497;40;20054;-79
2021/06/06 04:32:03;;;;;;;11.50;8.98;;;;;;;15.79;85.96;100235.16;2202556;40;20037;-78
2021/06/06 04:33:36;;;;;;;13.27;10.45;;;;;;;15.79;85.86;100237.84;2204459;40;20042;-79
2021/06/06 04:35:08;;;;;;;12.02;9.73;;;;;;;15.80;85.62;100239.53;2211281;40;20027;-79
2021/06/06 04:36:40;;;;;;;11.32;9.18;;;;;;;15.78;85.90;100241.56;2206914;40;20300;-79
2021/06/06 04:38:16;;;;;;;12.07;8.52;;;;;;;15.80;86.06;100236.84;2215715;40;20046;-79
2021/06/06 04:39:48;;;;;;;14.50;10.35;;;;;;;15.79;85.98;100237.84;2219743;40;20045;-80
2021/06/06 04:41:18;;;;;;;12.00;8.95;;;;;;;15.78;85.83;100242.44;2214112;40;20052;-80
2021/06/06 04:42:50;;;;;;;11.50;8.40;;;;;;;15.76;85.85;100236.34;2213759;40;20048;-79
2021/06/06 04:44:21;;;;;;;14.98;9.68;;;;;;;15.73;85.98;100232.16;2215847;40;20045;-80
2021/06/06 04:45:53;;;;;;;12.57;10.02;;;;;;;15.73;85.77;100236.69;2216555;40;20050;-80
2021/06/06 04:47:24;;;;;;;10.32;8.00;;;;;;;15.75;86.14;100232.84;2216577;40;20025;-79
2021/06/06 04:48:57;;;;;;;13.52;9.80;;;;;;;15.78;86.21;100234.34;2219971;40;20617;-79
2021/06/06 04:50:29;;;;;;;15.07;10.45;;;;;;;15.75;85.90;100219.38;2220886;40;20611;-80
2021/06/06 04:52:00;;;;;;;13.70;10.05;;;;;;;15.77;86.12;100231.81;2215287;40;20045;-81
2021/06/06 04:53:31;;;;;;;12.88;8.30;;;;;;;15.78;85.90;100230.78;2216313;40;20037;-79
2021/06/06 04:55:05;;;;;;;14.40;10.82;;;;;;;15.77;86.10;100226.44;2219848;40;20138;-81
2021/06/06 04:56:36;;;;;;;13.43;8.43;;;;;;;15.77;86.30;100231.81;2223450;40;20041;-81
2021/06/06 04:58:11;;;;;;;11.45;8.63;;;;;;;15.78;86.17;100228.09;2219791;40;20044;-81
2021/06/06 04:59:42;;;;;;;14.85;11.30;;;;;;;15.81;85.99;100227.75;2223471;40;20045;-79
2021/06/06 05:01:14;;;;;;;17.60;12.25;;;;;;;15.83;85.99;100233.81;2221538;40;20048;-80
2021/06/06 05:02:45;;;;;;;15.30;10.90;;;;;;;15.80;86.21;100231.47;2222484;40;20060;-79
2021/06/06 05:04:18;;;;;;;19.33;12.38;;;;;;;15.83;86.04;100231.13;2216136;40;20037;-78
2021/06/06 05:05:50;;;;;;;20.42;14.23;;;;;;;15.82;86.09;100235.66;2216322;40;20092;-81
2021/06/06 05:07:22;;;;;;;21.10;14.18;;;;;;;15.82;86.10;100230.25;2215412;40;20404;-81
2021/06/06 05:08:53;;;;;;;20.30;13.85;;;;;;;15.79;86.19;100229.78;2218366;40;20041;-80
2021/06/06 05:10:27;;;;;;;17.42;12.30;;;;;;;15.80;86.33;100236.84;2221010;40;20053;-80
2021/06/06 05:11:58;;;;;;;19.15;13.93;;;;;;;15.80;86.31;100226.06;2218143;40;20052;-81
2021/06/06 05:13:29;;;;;;;22.50;16.13;;;;;;;15.80;86.20;100237.72;2211495;40;20535;-81
2021/06/06 05:15:00;;;;;;;23.45;15.88;;;;;;;15.80;86.23;100235.00;2216658;40;20139;-81
2021/06/06 05:16:31;;;;;;;22.02;15.55;;;;;;;15.78;86.41;100231.66;2216369;40;20049;-80
2021/06/06 05:18:04;;;;;;;21.75;15.35;;;;;;;15.78;86.36;100238.88;2220213;40;20033;-81
2021/06/06 05:19:37;;;;;;;17.83;11.60;;;;;;;15.79;86.43;100237.84;2216366;40;20049;-80
2021/06/06 05:21:08;;;;;;;13.73;10.50;;;;;;;15.84;86.49;100238.22;2214543;40;20062;-79
2021/06/06 05:22:39;;;;;;;20.77;13.90;;;;;;;15.91;86.46;100241.91;2223602;40;20053;-81
2021/06/06 05:24:10;;;;;;;23.40;14.57;;;;;;;15.94;86.21;100236.16;2222186;40;20036;-79
2021/06/06 05:25:42;;;;;;;17.67;12.50;;;;;;;15.98;86.07;100240.16;2223506;40;20029;-81
2021/06/06 05:27:14;;;;;;;21.55;14.38;;;;;;;16.02;86.10;100236.13;2216444;40;20041;-81
2021/06/06 05:28:47;;;;;;;18.63;12.32;;;;;;;16.03;86.03;100243.19;2216509;40;20044;-81
2021/06/06 05:30:22;;;;;;;20.98;15.15;;;;;;;16.01;85.88;100239.84;2217586;40;20092;-81
2021/06/06 05:31:54;;;;;;;21.85;15.25;;;;;;;15.99;85.94;100244.56;2224599;40;20029;-81
2021/06/06 05:33:26;;;;;;;22.02;16.00;;;;;;;15.95;86.01;100239.69;2186033;40;23089;-80
2021/06/06 05:34:58;;;;;;;22.73;14.25;;;;;;;15.97;86.01;100240.34;2203597;40;20089;-80
2021/06/06 05:36:30;;;;;;;19.30;13.77;;;;;;;15.99;85.79;100252.63;2216080;40;20449;-81
2021/06/06 05:38:02;;;;;;;19.23;14.07;;;;;;;16.04;86.13;100246.72;2223181;40;20036;-79
2021/06/06 05:39:33;;;;;;;23.10;15.55;;;;;;;16.06;85.66;100250.91;2221811;40;20045;-80
2021/06/06 05:41:06;;;;;;;19.95;14.13;;;;;;;16.06;85.97;100248.22;2224240;40;20044;-81
2021/06/06 05:42:37;;;;;;;19.88;14.95;;;;;;;16.11;85.88;100252.25;2223377;40;20069;-79
2021/06/06 05:44:09;;;;;;;22.92;16.65;;;;;;;16.06;85.62;100248.22;2225507;40;20040;-82
2021/06/06 05:45:42;;;;;;;23.77;16.95;;;;;;;16.08;85.64;100252.59;2197709;40;20047;-81
2021/06/06 05:47:15;;;;;;;25.15;17.67;;;;;;;16.09;85.76;100251.59;2215102;40;20042;-81
2021/06/06 05:48:46;;;;;;;22.50;15.82;;;;;;;16.09;85.51;100259.69;2219435;40;20041;-81
2021/06/06 05:50:22;;;;;;;20.45;15.88;;;;;;;16.10;85.63;100253.28;2225297;40;20361;-81
2021/06/06 05:51:53;;;;;;;18.90;14.05;;;;;;;16.10;86.01;100255.97;2220658;40;20042;-82
2021/06/06 05:53:25;;;;;;;24.75;16.67;;;;;;;16.07;85.77;100249.06;2219108;40;20037;-84
2021/06/06 05:54:56;;;;;;;20.80;15.27;;;;;;;16.05;85.78;100256.50;2223960;40;20044;-84
2021/06/06 05:56:27;;;;;;;23.02;16.42;;;;;;;16.07;85.92;100257.16;2228815;40;20040;-84
2021/06/06 05:57:58;;;;;;;21.00;14.40;;;;;;;16.07;85.89;100254.47;2226774;40;20045;-82
2021/06/06 05:59:30;;;;;;;23.02;16.60;;;;;;;16.10;85.80;100253.28;2226474;40;20033;-83
2021/06/06 06:01:02;;;;;;;19.63;14.35;;;;;;;16.10;85.79;100247.88;2222764;40;20048;-80
2021/06/06 06:02:33;;;;;;;24.90;18.17;;;;;;;16.07;86.05;100240.97;2221901;40;20033;-81
2021/06/06 06:04:06;;;;;;;23.25;16.65;;;;;;;16.11;85.77;100252.25;2225640;40;20029;-83
2021/06/06 06:05:39;;;;;;;21.77;13.82;;;;;;;16.15;85.81;100246.34;2228509;40;20037;-83
2021/06/06 06:07:10;;;;;;;20.17;15.57;;;;;;;16.17;85.94;100232.66;2227076;40;20094;-84
2021/06/06 06:08:56;;;;;;;20.50;15.18;;;;;;;16.17;85.72;100246.16;2227798;40;20041;-83
2021/06/06 06:28:23;;;;;;;22.27;15.10;;;;;;;16.23;86.10;100240.06;2191415;40;20059;-81
2021/06/06 06:31:53;;;;;;;21.13;15.82;;;;;;;16.31;86.24;100249.94;2195018;40;20131;-80
2021/06/06 06:33:24;;;;;;;25.42;19.30;;;;;;;16.34;86.06;100249.59;2187877;40;20258;-80
2021/06/06 06:34:56;;;;;;;22.05;16.30;;;;;;;16.35;85.90;100251.28;2190710;40;20515;-81
2021/06/06 06:36:27;;;;;;;24.55;18.70;;;;;;;16.36;85.94;100244.88;2190357;40;20058;-79
2021/06/06 06:37:58;;;;;;;23.65;16.85;;;;;;;16.40;86.04;100248.06;2197058;40;20047;-81
2021/06/06 06:39:30;;;;;;;22.70;17.38;;;;;;;16.40;85.94;100243.47;2189436;40;20055;-84
2021/06/06 06:41:02;;;;;;;23.05;15.70;;;;;;;16.49;86.03;100246.97;2191087;40;20032;-79
2021/06/06 06:42:34;;;;;;;30.75;22.35;;;;;;;16.52;86.02;100252.88;2193245;40;20044;-80
2021/06/06 06:44:06;;;;;;;25.75;19.23;;;;;;;16.53;86.10;100245.63;2191826;40;20032;-86
2021/06/06 06:45:42;;;;;;;33.40;23.83;;;;;;;16.56;85.98;100247.13;2190173;40;20047;-82
2021/06/06 06:47:14;;;;;;;31.95;23.25;;;;;;;16.56;85.67;100247.94;2194469;40;20420;-83
2021/06/06 06:48:46;;;;;;;30.55;21.88;;;;;;;16.61;85.66;100255.50;2193248;40;20047;-81
2021/06/06 06:50:20;;;;;;;38.80;25.02;;;;;;;16.64;85.86;100263.25;2193542;40;20040;-83
2021/06/06 06:51:51;;;;;;;38.15;26.75;;;;;;;16.64;85.48;100257.84;2191794;40;20115;-80
2021/06/06 06:53:23;;;;;;;43.30;29.75;;;;;;;16.62;85.67;100255.34;2193921;40;20027;-83
2021/06/06 06:54:55;;;;;;;38.53;26.77;;;;;;;16.59;85.59;100255.69;2195366;40;20509;-81
2021/06/06 06:56:29;;;;;;;34.75;24.58;;;;;;;16.61;85.33;100260.91;2197411;40;20458;-82
2021/06/06 06:58:05;;;;;;;41.47;29.42;;;;;;;16.63;85.69;100264.25;2194413;40;20438;-80
2021/06/06 06:59:37;;;;;;;45.53;30.00;;;;;;;16.64;85.53;100258.69;2189218;40;20050;-81
2021/06/06 07:01:11;;;;;;;41.10;28.20;;;;;;;16.67;85.40;100261.03;2189556;40;20600;-83
2021/06/06 07:02:57;;;;;;;36.17;25.25;;;;;;;16.69;85.40;100256.28;2190585;40;20095;-83
2021/06/06 07:04:32;;;;;;;43.92;29.23;;;;;;;16.75;85.39;100256.56;2185482;40;20097;-80
2021/06/06 07:06:06;;;;;;;40.38;29.80;;;;;;;16.75;85.20;100267.38;2191934;40;20042;-81
2021/06/06 07:07:37;;;;;;;45.38;31.58;;;;;;;16.80;85.29;100263.13;2194572;40;20047;-81
2021/06/06 07:09:10;;;;;;;48.65;32.65;;;;;;;16.83;84.73;100270.00;2194016;40;20032;-81
2021/06/06 07:10:43;;;;;;;42.17;29.95;;;;;;;16.82;84.98;100265.63;2189372;40;20043;-83
2021/06/06 07:12:15;;;;;;;40.85;28.10;;;;;;;16.86;84.69;100264.25;2188586;40;20027;-82
2021/06/06 07:13:48;;;;;;;43.50;30.83;;;;;;;16.88;84.64;100264.94;2190430;40;20306;-84
2021/06/06 07:15:20;;;;;;;42.03;28.80;;;;;;;16.89;84.85;100266.59;2190466;40;20100;-83
2021/06/06 07:16:52;;;;;;;47.80;32.75;;;;;;;16.91;84.56;100259.16;2197118;40;20034;-79
2021/06/06 07:19:05;;;;;;;45.55;30.83;;;;;;;16.87;84.63;100260.53;2166270;40;20023;-83
2021/06/06 07:20:43;;;;;;;47.25;30.83;;;;;;;16.94;84.71;100261.53;2187375;40;20390;-82
2021/06/06 07:22:14;;;;;;;43.55;30.58;;;;;;;16.97;84.40;100263.88;2184132;40;20052;-80
2021/06/06 07:23:46;;;;;;;35.90;24.98;;;;;;;17.04;84.50;100260.44;2181982;41;20048;-82
2021/06/06 07:25:19;;;;;;;38.70;28.13;;;;;;;17.08;84.54;100265.28;2181193;40;20059;-82
2021/06/06 07:26:50;;;;;;;44.25;30.35;;;;;;;17.13;84.36;100265.59;2186190;40;20046;-84
2021/06/06 07:28:24;;;;;;;53.95;35.95;;;;;;;17.09;83.94;100266.16;2183272;40;20055;-80